Latest Weather Observations for Hogan Island

IDT60801

Issued at 10:02 am EDT Monday 2 March 2015 (issued every 30 minutes, with the page automatically refreshed every 10 minutes)

About weather observations | Map of weather stations | Latest weather observations for TAS | Other Formats
Station Details ID: 200838 Name: HOGAN ISLAND Lat: -39.22 Lon: 146.98 Height: 116.0 m
Data from the previous 72 hours. | See also: Recent months at Hogan Island
Date/Time
EDT
Temp
°C
App
Temp
°C
Dew
Point
Rel
Hum
%
Delta-T
°C
Wind Press
QNH
hPa
Press
MSL
hPa
Rain
since 9 am
mm
Dir
 
Spd
km/h
Gust
km/h
Spd
kts
Gust
kts
02/10:00am 16.9 16.0 10.5 66 3.4 WSW 6 9 3 5 1019.1 - 0.0
02/09:30am 16.5 15.4 10.8 69 3.1 WSW 7 11 4 6 1018.8 - 0.0
02/09:00am 15.3 14.6 10.1 71 2.7 WSW 4 7 2 4 1018.7 1018.6 0.0
02/08:30am 15.1 14.2 10.5 74 2.4 SSW 6 9 3 5 1018.8 - 0.0
02/08:00am 14.1 12.9 10.3 78 2.0 SSW 7 11 4 6 1018.9 - 0.0
02/07:30am 13.1 10.9 9.5 79 1.8 SSW 11 13 6 7 1018.5 - 0.0
02/07:00am 12.9 11.1 9.4 79 1.8 SSW 9 13 5 7 1018.3 - 0.0
02/06:30am 12.8 11.0 9.3 79 1.8 SW 9 13 5 7 1018.2 - 0.0
02/06:00am 12.9 11.0 9.2 78 1.9 SSW 9 11 5 6 1017.9 1017.8 0.0
02/05:30am 12.7 10.3 8.8 77 2.0 S 11 13 6 7 1017.6 - 0.0
02/05:00am 13.8 11.8 8.8 72 2.5 SSW 9 13 5 7 1017.9 - 0.0
02/04:30am 14.2 11.1 9.0 71 2.7 WSW 15 20 8 11 1018.0 - 0.0
02/04:00am 14.0 10.7 9.4 74 2.4 SW 17 20 9 11 1018.0 - 0.0
02/03:30am 14.0 10.3 9.4 74 2.4 WSW 19 20 10 11 1018.1 - 0.0
02/03:00am 14.1 9.8 9.5 74 2.4 SW 22 28 12 15 1017.4 1017.2 0.0
02/02:30am 14.3 10.0 9.3 72 2.6 WSW 22 26 12 14 1017.5 - 0.0
02/02:00am 14.3 10.4 9.3 72 2.6 WSW 20 24 11 13 1017.6 - 0.0
02/01:30am 14.4 10.7 9.4 72 2.6 SW 19 22 10 12 1017.4 - 0.0
02/01:00am 14.4 10.6 9.2 71 2.7 SW 19 26 10 14 1017.4 - 0.0
02/12:30am 14.8 10.2 9.6 71 2.7 SW 24 30 13 16 1017.1 - 0.0
02/12:00am 15.3 10.9 10.5 73 2.5 SW 24 30 13 16 1017.2 1017.0 0.0
 
Date/Time
EDT
Temp
°C
App
Temp
°C
Dew
Point
Rel
Hum
%
Delta-T
°C
Wind Press
QNH
hPa
Press
MSL
hPa
Rain
since 9 am
mm
Dir
 
Spd
km/h
Gust
km/h
Spd
kts
Gust
kts
01/11:30pm 15.1 10.1 10.9 76 2.2 WSW 28 32 15 17 1017.2 - 0.0
01/11:00pm 15.0 10.0 11.0 77 2.1 WSW 28 37 15 20 1017.3 - 0.0
01/10:30pm 15.0 8.2 10.6 75 2.3 WSW 37 43 20 23 1017.1 - 0.0
01/10:00pm 15.2 9.1 10.6 74 2.4 WSW 33 41 18 22 1017.2 - 0.0
01/09:30pm 15.1 9.0 10.5 74 2.4 WSW 33 39 18 21 1016.7 - 0.0
01/09:00pm 15.2 7.5 10.2 72 2.6 W 41 48 22 26 1016.2 1016.0 0.0
01/08:30pm 15.2 6.8 9.8 70 2.8 WSW 44 54 24 29 1016.2 - 0.0
01/08:00pm 15.3 6.9 9.7 69 2.9 WSW 44 52 24 28 1015.7 - 0.0
01/07:30pm 15.4 7.0 9.7 69 3.0 WSW 44 52 24 28 1015.6 - 0.0
01/07:00pm 16.3 6.5 10.2 67 3.2 WSW 52 61 28 33 1015.2 - 0.0
01/06:30pm 16.8 5.9 9.5 62 3.8 WSW 57 65 31 35 1014.6 - 0.0
01/06:00pm 17.4 6.7 9.6 60 4.1 WSW 56 65 30 35 1014.2 1014.0 0.0
01/05:30pm 17.8 6.9 9.7 59 4.3 WSW 57 67 31 36 1014.0 - 0.0
01/05:00pm 17.9 7.8 10.3 61 4.1 WSW 54 63 29 34 1014.1 - 0.0
01/04:30pm 18.5 8.8 10.3 59 4.4 WSW 52 61 28 33 1013.8 - 0.0
01/04:00pm 18.6 9.3 10.7 60 4.3 WSW 50 61 27 33 1013.5 - 0.0
01/03:30pm 18.7 8.9 10.0 57 4.7 WSW 52 57 28 31 1013.4 - 0.0
01/03:00pm 18.7 10.2 10.8 60 4.3 WSW 46 56 25 30 1013.1 1012.9 0.0
01/02:30pm 18.7 9.0 10.5 59 4.4 WSW 52 63 28 34 1012.9 - 0.0
01/02:00pm 18.8 9.4 11.6 63 4.0 WSW 52 61 28 33 1012.6 - 0.0
01/01:30pm 19.3 10.8 12.1 63 4.0 WSW 48 57 26 31 1012.4 - 0.0
01/01:00pm 18.8 10.2 11.6 63 4.0 WSW 48 56 26 30 1012.1 - 0.0
01/12:30pm 18.1 9.9 11.7 66 3.5 WSW 46 56 25 30 1011.8 - 0.0
01/12:00pm 18.3 9.9 12.3 68 3.3 WSW 48 54 26 29 1011.6 1011.4 0.0
01/11:30am 18.0 9.2 12.2 69 3.2 SW 50 57 27 31 1011.2 - 0.0
01/11:00am 17.4 8.8 11.7 69 3.1 WSW 48 57 26 31 1010.7 - 0.0
01/10:30am 17.0 8.5 11.9 72 2.8 SW 48 57 26 31 1010.2 - 0.0
01/10:00am 16.9 7.7 11.0 68 3.2 SW 50 59 27 32 1009.5 - 0.0
01/09:30am 16.2 6.2 10.7 70 2.9 WSW 54 61 29 33 1008.8 - 0.0
01/09:00am 15.8 5.1 10.3 70 2.9 WSW 57 67 31 36 1008.3 1008.1 8.0
01/08:30am 15.6 5.1 10.4 71 2.8 WSW 56 65 30 35 1007.8 - 8.0
01/08:00am 15.4 5.6 11.4 77 2.2 WSW 54 61 29 33 1007.2 - 8.0
01/07:30am 15.2 5.8 11.6 79 1.9 WSW 52 63 28 34 1006.8 - 8.0
01/07:00am 15.3 6.0 11.9 80 1.9 WSW 52 59 28 32 1006.2 - 8.0
01/06:30am 15.2 6.1 11.4 78 2.0 WSW 50 63 27 34 1005.4 - 8.0
01/06:00am 15.1 5.1 11.9 81 1.7 SW 56 63 30 34 1004.6 1004.4 8.0
01/05:30am 15.0 6.4 12.9 87 1.2 SW 50 61 27 33 1004.4 - 8.0
01/05:00am 15.3 6.7 14.0 92 0.7 SW 52 61 28 33 1004.0 - 8.0
01/04:30am 15.3 7.2 14.5 95 0.5 SW 50 59 27 32 1003.6 - 8.0
01/04:00am 14.9 6.8 14.3 96 0.3 SW 50 63 27 34 1003.4 - 8.0
01/03:30am 15.0 6.2 14.4 96 0.3 SW 54 65 29 35 1003.4 - 7.8
01/03:01am 16.3 10.4 15.7 96 0.4 SW 41 59 22 32 1003.4 - 7.8
01/03:00am 16.4 10.5 15.8 96 0.4 SW 41 48 22 26 1003.4 1003.2 7.6
01/02:50am 16.5 10.0 15.7 95 0.5 SW 44 52 24 28 1003.3 - 7.6
01/02:47am 16.8 11.4 16.0 95 0.5 W 39 48 21 26 1003.2 - 7.4
01/02:30am 17.4 16.8 16.6 95 0.5 NW 15 20 8 11 1003.5 - 7.0
01/02:00am 17.1 17.9 16.3 95 0.5 N 7 11 4 6 1003.5 - 7.0
01/01:30am 17.0 17.7 16.2 95 0.5 N 7 13 4 7 1003.7 - 6.6
01/01:21am 17.2 19.0 16.4 95 0.5 ENE 2 7 1 4 1003.7 - 6.6
01/01:07am 17.3 15.3 16.5 95 0.5 E 22 28 12 15 1001.7 - 6.6
01/01:00am 17.4 17.2 16.6 95 0.5 S 13 17 7 9 1003.8 - 6.4
01/12:30am 17.3 16.6 16.3 94 0.6 ESE 15 17 8 9 1004.1 - 4.8
01/12:00am 17.4 15.9 16.4 94 0.6 S 19 24 10 13 1004.5 1004.3 3.4
 
Date/Time
EDT
Temp
°C
App
Temp
°C
Dew
Point
Rel
Hum
%
Delta-T
°C
Wind Press
QNH
hPa
Press
MSL
hPa
Rain
since 9 am
mm
Dir
 
Spd
km/h
Gust
km/h
Spd
kts
Gust
kts
28/11:30pm 17.7 15.7 16.4 92 0.8 SSW 22 32 12 17 1004.9 - 2.2
28/11:00pm 18.1 14.9 16.3 89 1.1 WSW 28 37 15 20 1005.0 - 0.8
28/10:30pm 18.8 15.1 16.0 84 1.7 SW 30 43 16 23 1003.7 - 0.0
28/10:29pm 19.0 15.7 16.0 83 1.8 SW 28 43 15 23 1003.6 - 0.0
28/10:25pm 19.8 19.2 16.6 82 1.9 N 15 24 8 13 1003.1 - 0.0
28/10:00pm 18.9 16.1 16.3 85 1.6 E 26 30 14 16 1001.0 - 0.0
28/09:30pm 18.7 15.6 16.5 87 1.3 ENE 28 32 15 17 1001.6 - 0.0
28/09:00pm 18.6 15.7 16.0 85 1.6 ENE 26 30 14 16 1001.3 1001.0 0.0
28/08:30pm 19.1 14.2 16.3 84 1.7 NE 37 43 20 23 1001.6 - 0.0
28/08:00pm 18.6 15.3 16.0 85 1.6 NE 28 35 15 19 1001.8 - 0.0
28/07:30pm 18.7 16.9 15.6 82 1.8 ENE 19 22 10 12 1002.1 - 0.0
28/07:00pm 20.2 18.4 15.4 74 2.9 NE 19 24 10 13 1002.6 - 0.0
28/06:30pm 20.1 19.8 15.5 75 2.7 NNE 11 13 6 7 1003.4 - 0.0
28/06:00pm 20.2 19.7 16.0 77 2.5 NE 13 15 7 8 1003.7 1003.4 0.0
28/05:30pm 20.3 20.8 16.5 79 2.3 NE 9 13 5 7 1003.7 - 0.0
28/05:00pm 20.0 20.3 16.0 78 2.4 ENE 9 11 5 6 1004.1 - 0.0
28/04:30pm 20.8 21.0 15.8 73 3.0 W 9 13 5 7 1004.4 - 0.0
28/04:00pm 20.6 20.6 16.2 76 2.7 W 11 13 6 7 1004.4 - 0.0
28/03:30pm 20.6 20.2 17.2 81 2.1 NNW 15 17 8 9 1004.6 - 0.0
28/03:00pm 20.5 19.5 16.5 78 2.4 NNW 17 24 9 13 1005.2 1004.9 0.0
28/02:30pm 19.5 18.6 16.9 85 1.6 N 17 20 9 11 1005.0 - 0.0
28/02:00pm 18.9 16.5 16.5 86 1.4 N 24 30 13 16 1005.5 - 0.0
28/01:30pm 19.6 17.4 16.8 84 1.7 N 24 32 13 17 1005.5 - 0.0
28/01:00pm 19.0 15.9 16.6 86 1.4 NNE 28 32 15 17 1005.5 - 0.0
28/12:30pm 19.0 15.5 16.4 85 1.6 NNE 30 35 16 19 1005.5 - 0.0
28/12:00pm 19.4 15.4 16.2 82 1.9 NNE 32 39 17 21 1005.8 1005.5 0.0
28/11:30am 19.8 16.0 16.6 82 1.9 NNE 32 37 17 20 1006.2 - 0.0
28/11:00am 18.9 14.7 16.3 85 1.6 NNE 33 41 18 22 1006.5 - 0.0
28/10:30am 18.7 14.1 16.1 85 1.6 NNE 35 44 19 24 1006.5 - 0.0
28/10:00am 18.5 14.3 16.1 86 1.4 NNE 33 41 18 22 1006.9 - 0.0
28/09:30am 18.2 13.9 15.8 86 1.4 N 33 37 18 20 1007.4 - 0.0
28/09:00am 17.4 12.8 15.0 86 1.4 NNE 33 39 18 21 1006.6 1006.3 0.0
28/08:30am 17.4 12.9 15.0 86 1.4 NE 32 37 17 20 1006.7 - 0.0
28/08:00am 16.6 11.7 14.4 87 1.3 NE 33 41 18 22 1006.7 - 0.0
28/07:30am 16.4 11.1 14.2 87 1.3 NE 35 39 19 21 1006.5 - 0.0
28/07:00am 16.1 12.0 13.9 87 1.2 NE 28 33 15 18 1007.0 - 0.0
28/06:30am 15.8 12.8 13.6 87 1.2 NE 22 26 12 14 1007.4 - 0.0
28/06:00am 15.4 12.6 13.2 87 1.2 NE 20 22 11 12 1007.6 1007.3 0.0
28/05:30am 15.1 12.7 12.8 86 1.3 NNE 17 20 9 11 1008.0 - 0.0
28/05:00am 14.8 11.9 12.3 85 1.4 NNE 19 20 10 11 1008.1 - 0.0
28/04:30am 14.7 12.9 12.0 84 1.5 NNE 13 15 7 8 1008.6 - 0.0
28/04:00am 14.7 12.4 11.8 83 1.6 NNE 15 17 8 9 1008.9 - 0.0
28/03:30am 14.8 13.7 11.8 82 1.6 NNW 9 11 5 6 1009.7 - 0.0
28/03:00am 15.0 13.9 11.8 81 1.7 NNW 9 13 5 7 1009.7 1009.4 0.0
28/02:30am 15.2 14.1 12.0 81 1.7 NNW 9 15 5 8 1009.6 - 0.0
28/02:00am 15.1 13.9 11.7 80 1.8 NW 9 15 5 8 1009.8 - 0.0
28/01:30am 14.9 13.3 11.5 80 1.8 WNW 11 15 6 8 1010.1 - 0.0
28/01:00am 14.8 12.8 11.4 80 1.8 W 13 15 7 8 1010.6 - 0.0
28/12:30am 14.7 12.3 11.3 80 1.8 W 15 17 8 9 1011.0 - 0.0
28/12:00am 14.7 12.2 11.1 79 1.9 W 15 17 8 9 1011.0 1010.7 0.0
 
Date/Time
EDT
Temp
°C
App
Temp
°C
Dew
Point
Rel
Hum
%
Delta-T
°C
Wind Press
QNH
hPa
Press
MSL
hPa
Rain
since 9 am
mm
Dir
 
Spd
km/h
Gust
km/h
Spd
kts
Gust
kts
27/11:30pm 14.8 12.2 10.8 77 2.1 WSW 15 19 8 10 1011.2 - 0.0
27/11:00pm 14.9 11.4 10.9 77 2.1 WSW 20 24 11 13 1011.3 - 0.0
27/10:30pm 14.9 11.0 10.9 77 2.1 WSW 22 24 12 13 1011.2 - 0.0
27/10:00pm 15.0 10.4 11.2 78 2.0 WSW 26 33 14 18 1011.1 - 0.0
27/09:30pm 15.3 10.0 11.3 77 2.2 WSW 30 32 16 17 1011.0 - 0.0
27/09:00pm 15.2 10.3 11.4 78 2.1 WSW 28 33 15 18 1010.6 1010.4 0.0
27/08:30pm 15.1 11.2 10.9 76 2.2 WSW 22 26 12 14 1010.3 - 0.0
27/08:00pm 15.5 11.3 11.1 75 2.4 WSW 24 30 13 16 1010.4 - 0.0
27/07:30pm 16.3 13.0 11.7 74 2.5 WSW 20 24 11 13 1010.0 - 0.0
27/07:00pm 16.1 14.1 11.5 74 2.5 WSW 13 17 7 9 1009.5 - 0.0
27/06:30pm 16.1 13.3 11.3 73 2.6 SW 17 24 9 13 1009.6 - 0.0
27/06:00pm 16.3 12.1 11.2 72 2.8 WSW 24 30 13 16 1010.2 1009.9 0.0
27/05:30pm 16.8 12.8 11.7 72 2.8 WSW 24 30 13 16 1010.4 - 0.0
27/05:00pm 17.1 13.9 12.0 72 2.8 SW 20 26 11 14 1009.9 - 0.0
27/04:30pm 17.7 14.1 11.7 68 3.3 SW 22 28 12 15 1010.3 - 0.0
27/04:00pm 18.0 14.3 12.7 71 3.0 SW 24 28 13 15 1010.1 - 0.0
27/03:30pm 17.4 13.1 12.1 71 2.9 SW 26 32 14 17 1010.3 - 0.0
27/03:00pm 19.4 16.2 13.1 67 3.6 SW 22 26 12 14 1010.6 1010.4 0.0
27/02:30pm 19.5 16.7 13.2 67 3.6 SW 20 26 11 14 1010.7 - 0.0
27/02:00pm 20.1 17.1 13.8 67 3.6 SW 22 26 12 14 1011.1 - 0.0
27/01:30pm 19.0 17.1 14.1 73 2.8 SW 17 22 9 12 1010.7 - 0.0
27/01:00pm 19.7 17.6 15.1 75 2.7 SW 20 24 11 13 1011.0 - 0.0
27/12:30pm 20.2 16.9 14.1 68 3.5 SW 24 30 13 16 1011.1 - 0.0
27/12:00pm 19.4 17.1 14.2 72 3.0 SW 19 20 10 11 1011.2 1010.9 0.0
27/11:30am 19.7 17.3 14.5 72 3.0 SW 20 24 11 13 1011.5 - 0.0
27/11:00am 19.8 19.0 16.1 79 2.2 SW 15 20 8 11 1011.3 - 0.0
27/10:30am 18.6 16.8 15.5 82 1.8 SW 19 24 10 13 1011.2 - 0.0

Other Formats:

Comma delimited format used in spreadsheet applications
http://www.bom.gov.au/fwo/IDT60801/IDT60801.94949.axf

JavaScript Object Notation format (JSON) in row-major order
http://www.bom.gov.au/fwo/IDT60801/IDT60801.94949.json